Guemes, Washington
Current Conditions -  °F | °C
As of 10:56 PM on Sunday 23 Nov 2014 (Local Time) from KNUW Reporting Station
Scattered Clouds Scattered Clouds  
Wind Chill:   Ceiling: Unl
Heat Index:   Visibility: 10mi
Dew Point:   Wind: 6mph
Humidity: 76%   Direction: 180°S
Pressure: 30.33"   Gusts: NA
Location:  48.4652°N, 122.617°W
Report Text: KNUW 240656Z 18005KT 10SM FEW040 SCT090 07/03 A3033 RMK AO2 SLP276 T00720033 $
Loading
Personal Weather Stations






























Interactive Weather Map New forecast layout! Learn more

10-Day Weather Forecast

Advertisements
Track Severe Weather on mobile